createdAt,value
2023-05-11T00:00:09.950Z,11.90
2023-05-11T00:02:43.270Z,11.80
2023-05-11T00:05:16.487Z,11.80
2023-05-11T00:07:49.492Z,11.80
2023-05-11T00:10:24.186Z,11.80
2023-05-11T00:12:57.254Z,11.80
2023-05-11T00:15:30.390Z,11.80
2023-05-11T00:18:03.456Z,11.80
2023-05-11T00:20:36.667Z,11.80
2023-05-11T00:23:09.626Z,11.70
2023-05-11T00:25:43.988Z,11.70
2023-05-11T00:28:16.964Z,11.70
2023-05-11T00:30:49.982Z,11.60
2023-05-11T00:33:23.003Z,11.60
2023-05-11T00:35:56.004Z,11.60
2023-05-11T00:38:28.968Z,11.60
2023-05-11T00:41:03.628Z,11.60
2023-05-11T00:43:36.609Z,11.60
2023-05-11T00:46:09.696Z,11.50
2023-05-11T00:48:42.922Z,11.50
2023-05-11T00:51:16.147Z,11.50
2023-05-11T00:53:49.867Z,11.50
2023-05-11T00:56:24.497Z,11.50
2023-05-11T00:58:57.507Z,11.50
2023-05-11T01:01:30.883Z,11.50
2023-05-11T01:04:04.336Z,11.50
2023-05-11T01:06:46.882Z,11.50
2023-05-11T01:09:35.932Z,11.50
2023-05-11T01:12:18.508Z,11.50
2023-05-11T01:15:01.150Z,11.50
2023-05-11T01:17:45.997Z,11.50
2023-05-11T01:20:24.984Z,11.50
2023-05-11T01:23:52.121Z,11.50
2023-05-11T01:26:40.351Z,11.50
2023-05-11T01:30:17.385Z,11.50
2023-05-11T01:32:50.687Z,11.50
2023-05-11T01:35:26.878Z,11.30
2023-05-11T01:38:02.418Z,11.30
2023-05-11T01:40:39.468Z,11.30
2023-05-11T01:43:19.057Z,11.30
2023-05-11T01:45:55.053Z,11.30
2023-05-11T01:48:32.889Z,11.40
2023-05-11T01:51:06.978Z,11.30
2023-05-11T01:53:42.039Z,11.30
2023-05-11T01:56:16.452Z,11.30
2023-05-11T01:58:52.501Z,11.30
2023-05-11T02:01:28.725Z,11.30
2023-05-11T02:04:05.139Z,11.30
2023-05-11T02:06:40.505Z,11.30
2023-05-11T02:09:17.450Z,11.30
2023-05-11T02:11:51.383Z,11.30
2023-05-11T02:14:26.904Z,11.30
2023-05-11T02:17:02.166Z,11.30
2023-05-11T02:19:36.918Z,11.30
2023-05-11T02:22:11.146Z,11.30
2023-05-11T02:24:44.458Z,11.30
2023-05-11T02:27:17.472Z,11.30
2023-05-11T02:29:50.570Z,11.30
2023-05-11T02:32:28.427Z,11.30
2023-05-11T02:35:06.149Z,11.30
2023-05-11T02:37:44.519Z,11.30
2023-05-11T02:40:20.497Z,11.20
2023-05-11T02:43:00.200Z,11.20
2023-05-11T02:45:35.354Z,11.20
2023-05-11T02:48:13.973Z,11.20
2023-05-11T02:50:47.918Z,11.20
2023-05-11T02:53:22.076Z,11.20
2023-05-11T02:55:56.344Z,11.20
2023-05-11T02:58:30.331Z,11.20
2023-05-11T03:01:07.738Z,11.20
2023-05-11T03:03:42.629Z,11.20
2023-05-11T03:06:15.816Z,11.20
2023-05-11T03:08:49.358Z,11.20
2023-05-11T03:11:23.201Z,11.20
2023-05-11T03:13:56.354Z,11.10
2023-05-11T03:16:30.096Z,11.20
2023-05-11T03:19:06.646Z,11.20
2023-05-11T03:21:41.077Z,11.10
2023-05-11T03:24:15.025Z,11.10
2023-05-11T03:26:49.028Z,11.10
2023-05-11T03:29:24.057Z,11.10
2023-05-11T03:31:57.115Z,11.10
2023-05-11T03:34:31.588Z,11.20
2023-05-11T03:37:07.035Z,11.10
2023-05-11T03:39:40.600Z,11.10
2023-05-11T03:42:15.614Z,11.10
2023-05-11T03:44:52.938Z,11.10
2023-05-11T03:47:28.467Z,11.10
2023-05-11T03:50:03.843Z,11.10
2023-05-11T03:52:37.326Z,11.00
2023-05-11T03:55:11.419Z,11.00
2023-05-11T03:57:44.793Z,11.10
2023-05-11T04:00:18.820Z,11.10
2023-05-11T04:02:53.357Z,11.10
2023-05-11T04:05:27.899Z,11.10
2023-05-11T04:08:01.286Z,11.00
2023-05-11T04:10:34.370Z,11.10
2023-05-11T04:13:07.413Z,11.10
2023-05-11T04:15:40.414Z,11.10
2023-05-11T04:18:13.422Z,11.10
2023-05-11T04:20:47.722Z,11.10
2023-05-11T04:23:20.708Z,11.10
2023-05-11T04:25:57.077Z,11.10
2023-05-11T04:28:30.086Z,11.00
2023-05-11T04:31:03.085Z,11.10
2023-05-11T04:33:36.144Z,11.10
2023-05-11T04:36:11.026Z,11.10
2023-05-11T04:38:44.039Z,11.10
2023-05-11T04:41:17.342Z,11.10
2023-05-11T04:43:50.370Z,11.10
2023-05-11T04:46:23.601Z,11.10
2023-05-11T04:48:56.634Z,11.20
2023-05-11T04:51:31.032Z,11.20
2023-05-11T04:54:04.166Z,11.20
2023-05-11T04:56:40.497Z,11.10
2023-05-11T04:59:13.521Z,11.20
2023-05-11T05:01:46.498Z,11.20
2023-05-11T05:04:19.608Z,11.20
2023-05-11T05:06:54.023Z,11.20
2023-05-11T05:09:27.062Z,11.20
2023-05-11T05:12:00.062Z,11.10
2023-05-11T05:14:33.554Z,11.20
2023-05-11T05:17:07.544Z,11.20
2023-05-11T05:19:40.614Z,11.20
2023-05-11T05:22:15.779Z,11.30
2023-05-11T05:24:48.802Z,11.30
2023-05-11T05:27:21.773Z,11.30
2023-05-11T05:29:54.764Z,11.30
2023-05-11T05:32:27.768Z,11.30
2023-05-11T05:35:00.857Z,11.30
2023-05-11T05:37:35.307Z,11.40
2023-05-11T05:40:10.102Z,11.50
2023-05-11T05:42:43.107Z,11.50
2023-05-11T05:45:16.058Z,11.50
2023-05-11T05:47:49.402Z,11.50
2023-05-11T05:50:22.770Z,11.60
2023-05-11T05:52:57.119Z,11.60
2023-05-11T05:55:30.098Z,11.60
2023-05-11T05:58:03.054Z,11.60
2023-05-11T06:00:37.081Z,11.70
2023-05-11T06:03:10.257Z,11.70
2023-05-11T06:05:43.457Z,11.70
2023-05-11T06:08:17.756Z,11.70
2023-05-11T06:10:50.776Z,11.70
2023-05-11T06:13:23.792Z,11.70
2023-05-11T06:15:56.778Z,11.80
2023-05-11T06:18:29.803Z,11.80
2023-05-11T06:21:02.776Z,11.70
2023-05-11T06:23:37.121Z,11.80
2023-05-11T06:26:10.262Z,11.80
2023-05-11T06:28:43.287Z,11.80
2023-05-11T06:31:16.557Z,11.80
2023-05-11T06:33:49.622Z,11.80
2023-05-11T06:36:22.593Z,11.80
2023-05-11T06:38:57.062Z,11.70
2023-05-11T06:41:30.030Z,11.80
2023-05-11T06:44:03.001Z,11.80
2023-05-11T06:46:36.118Z,11.80
2023-05-11T06:49:09.726Z,11.80
2023-05-11T06:51:43.054Z,11.80
2023-05-11T06:54:17.381Z,11.90
2023-05-11T06:56:50.416Z,11.90
2023-05-11T06:59:23.396Z,11.90
2023-05-11T07:01:56.465Z,11.90
2023-05-11T07:04:29.935Z,11.90
2023-05-11T07:07:03.535Z,11.90
2023-05-11T07:09:38.645Z,11.90
2023-05-11T07:12:12.499Z,11.90
2023-05-11T07:14:45.496Z,12.00
2023-05-11T07:17:18.471Z,12.00
2023-05-11T07:19:52.482Z,11.90
2023-05-11T07:22:25.478Z,12.00
2023-05-11T07:25:01.645Z,12.10
2023-05-11T07:27:34.808Z,12.10
2023-05-11T07:30:09.277Z,12.10
2023-05-11T07:32:42.377Z,12.10
2023-05-11T07:35:16.038Z,12.10
2023-05-11T07:37:49.015Z,12.20
2023-05-11T07:40:23.362Z,12.30
2023-05-11T07:42:56.337Z,12.30
2023-05-11T07:45:29.345Z,12.30
2023-05-11T07:48:02.344Z,12.30
2023-05-11T07:50:35.651Z,12.40
2023-05-11T07:53:08.686Z,12.40
2023-05-11T07:55:43.194Z,12.40
2023-05-11T07:58:16.278Z,12.40
2023-05-11T08:00:49.448Z,12.50
2023-05-11T08:03:22.742Z,12.60
2023-05-11T08:05:55.855Z,12.60
2023-05-11T08:08:30.128Z,12.50
2023-05-11T08:11:05.875Z,12.40
2023-05-11T08:13:38.857Z,12.40
2023-05-11T08:16:11.968Z,12.40
2023-05-11T08:18:45.499Z,12.40
2023-05-11T08:21:18.657Z,12.50
2023-05-11T08:23:51.620Z,12.50
2023-05-11T08:26:26.199Z,12.60
2023-05-11T08:28:59.184Z,12.60
2023-05-11T08:31:32.460Z,12.60
2023-05-11T08:34:13.817Z,12.70
2023-05-11T08:36:51.862Z,12.80
2023-05-11T08:39:45.400Z,12.90
2023-05-11T08:42:21.263Z,12.90
2023-05-11T08:44:57.215Z,12.90
2023-05-11T08:47:30.503Z,12.90
2023-05-11T08:50:03.856Z,12.90
2023-05-11T08:52:36.862Z,12.90
2023-05-11T08:55:11.352Z,13.00
2023-05-11T08:57:46.597Z,13.00
2023-05-11T09:00:23.108Z,13.00
2023-05-11T09:02:57.727Z,12.90
2023-05-11T09:05:32.815Z,12.90
2023-05-11T09:08:08.868Z,12.90
2023-05-11T09:10:42.340Z,12.80
2023-05-11T09:13:16.890Z,12.80
2023-05-11T09:15:49.844Z,12.90
2023-05-11T09:18:22.976Z,13.00
2023-05-11T09:20:56.128Z,13.00
2023-05-11T09:23:29.163Z,13.10
2023-05-11T09:26:02.389Z,13.20
2023-05-11T09:28:37.265Z,13.10
2023-05-11T09:31:10.505Z,13.10
2023-05-11T09:33:43.699Z,13.20
2023-05-11T09:36:25.463Z,13.20
2023-05-11T09:39:03.655Z,13.20
2023-05-11T09:41:37.177Z,13.10
2023-05-11T09:44:13.756Z,13.20
2023-05-11T09:46:47.567Z,13.30
2023-05-11T09:49:20.641Z,13.40
2023-05-11T09:52:02.413Z,13.50
2023-05-11T09:54:43.762Z,13.70
2023-05-11T09:57:25.990Z,13.70
2023-05-11T10:00:01.704Z,13.80
2023-05-11T10:02:35.116Z,13.70
2023-05-11T10:05:14.352Z,13.70
2023-05-11T10:07:59.557Z,13.70
2023-05-11T10:10:34.696Z,13.70
2023-05-11T10:13:08.059Z,13.70
2023-05-11T10:15:44.998Z,13.70
2023-05-11T10:18:20.220Z,13.70
2023-05-11T10:20:54.370Z,13.70
2023-05-11T10:23:27.726Z,13.70
2023-05-11T10:26:02.939Z,13.70
2023-05-11T10:28:37.210Z,13.70
2023-05-11T10:31:12.597Z,13.70
2023-05-11T10:33:47.851Z,13.80
2023-05-11T10:36:24.465Z,13.80
2023-05-11T10:38:57.566Z,13.80
2023-05-11T10:41:50.213Z,13.80
2023-05-11T10:44:57.218Z,13.70
2023-05-11T10:48:26.214Z,13.80
2023-05-11T10:51:19.909Z,13.80
2023-05-11T10:54:17.991Z,13.70
2023-05-11T10:57:13.782Z,13.70
2023-05-11T11:00:16.439Z,13.80
2023-05-11T11:02:50.913Z,13.80
2023-05-11T11:05:34.758Z,14.00
2023-05-11T11:08:09.648Z,14.00
2023-05-11T11:10:46.155Z,14.00
2023-05-11T11:13:22.844Z,14.00
2023-05-11T11:16:14.734Z,14.10
2023-05-11T11:18:50.794Z,14.10
2023-05-11T11:21:44.050Z,14.00
2023-05-11T11:24:45.028Z,14.00
2023-05-11T11:27:18.008Z,14.00
2023-05-11T11:30:18.899Z,14.00
2023-05-11T11:32:53.467Z,13.90
2023-05-11T11:35:49.881Z,13.80
2023-05-11T11:38:22.991Z,13.70
2023-05-11T11:40:56.034Z,13.80
2023-05-11T11:43:44.873Z,13.70
2023-05-11T11:46:28.733Z,13.70
2023-05-11T11:49:09.184Z,13.80
2023-05-11T11:51:43.514Z,13.90
2023-05-11T11:54:39.804Z,13.90
2023-05-11T11:57:46.596Z,13.80
2023-05-11T12:00:22.733Z,13.80
2023-05-11T12:02:56.864Z,13.90
2023-05-11T12:05:31.531Z,13.80
2023-05-11T12:08:08.002Z,13.80
2023-05-11T12:10:41.002Z,13.70
2023-05-11T12:13:14.782Z,13.70
2023-05-11T12:15:47.912Z,13.60
2023-05-11T12:18:24.400Z,13.60
2023-05-11T12:20:57.504Z,13.80
2023-05-11T12:23:32.496Z,13.90
2023-05-11T12:26:06.950Z,13.90
2023-05-11T12:28:40.031Z,13.90
2023-05-11T12:31:13.207Z,14.00
2023-05-11T12:33:47.072Z,14.10
2023-05-11T12:36:20.338Z,14.20
2023-05-11T12:38:55.086Z,14.20
2023-05-11T12:41:28.366Z,14.00
2023-05-11T12:44:01.605Z,13.90
2023-05-11T12:46:35.073Z,13.80
2023-05-11T12:49:08.551Z,13.90
2023-05-11T12:51:53.594Z,14.00
2023-05-11T12:54:38.018Z,14.10
2023-05-11T12:57:25.003Z,14.10
2023-05-11T13:00:13.796Z,14.10
2023-05-11T13:02:51.099Z,14.00
2023-05-11T13:05:26.994Z,13.90
2023-05-11T13:08:01.032Z,13.90
2023-05-11T13:10:35.407Z,13.70
2023-05-11T13:13:08.481Z,13.50
2023-05-11T13:15:52.792Z,13.60
2023-05-11T13:18:25.884Z,13.70
2023-05-11T13:21:09.469Z,13.60
2023-05-11T13:23:42.453Z,13.70
2023-05-11T13:26:24.081Z,13.70
2023-05-11T13:29:09.595Z,13.70
2023-05-11T13:31:45.075Z,13.80
2023-05-11T13:34:18.534Z,13.90
2023-05-11T13:36:51.877Z,14.10
2023-05-11T13:39:24.800Z,14.20
2023-05-11T13:41:59.093Z,14.20
2023-05-11T13:44:32.040Z,14.20
2023-05-11T13:47:05.504Z,14.30
2023-05-11T13:49:38.574Z,14.20
2023-05-11T13:52:11.972Z,14.20
2023-05-11T13:54:44.922Z,14.20
2023-05-11T13:57:19.450Z,14.00
2023-05-11T13:59:52.465Z,13.80
2023-05-11T14:02:25.591Z,13.60
2023-05-11T14:04:58.598Z,13.30
2023-05-11T14:07:45.593Z,13.20
2023-05-11T14:10:21.074Z,13.20
2023-05-11T14:12:55.460Z,13.30
2023-05-11T14:15:28.669Z,13.30
2023-05-11T14:18:03.604Z,13.30
2023-05-11T14:20:38.580Z,13.30
2023-05-11T14:23:11.536Z,13.30
2023-05-11T14:25:44.554Z,13.40
2023-05-11T14:28:18.853Z,13.40
2023-05-11T14:30:51.912Z,13.30
2023-05-11T14:33:25.493Z,13.30
2023-05-11T14:35:58.632Z,13.30
2023-05-11T14:38:31.896Z,13.30
2023-05-11T14:41:05.269Z,13.30
2023-05-11T14:43:42.383Z,13.30
2023-05-11T14:46:15.431Z,13.30
2023-05-11T14:48:48.493Z,13.20
2023-05-11T14:51:21.474Z,13.20
2023-05-11T14:53:54.576Z,13.20
2023-05-11T14:56:27.613Z,13.10
2023-05-11T14:59:01.983Z,13.00
2023-05-11T15:01:35.008Z,13.00
2023-05-11T15:04:08.049Z,13.00
2023-05-11T15:06:41.058Z,13.00
2023-05-11T15:09:14.065Z,12.90
2023-05-11T15:11:47.061Z,12.80
2023-05-11T15:14:21.357Z,12.70
2023-05-11T15:16:54.764Z,12.90
2023-05-11T15:19:27.809Z,12.80
2023-05-11T15:22:00.802Z,12.90
2023-05-11T15:24:33.841Z,12.80
2023-05-11T15:27:07.637Z,12.80
2023-05-11T15:29:42.019Z,12.90
2023-05-11T15:32:17.167Z,13.00
2023-05-11T15:34:59.328Z,13.00
2023-05-11T15:37:33.147Z,12.90
2023-05-11T15:40:08.518Z,12.90
2023-05-11T15:42:41.783Z,12.90
2023-05-11T15:45:16.473Z,12.90
2023-05-11T15:47:49.621Z,12.90
2023-05-11T15:50:22.910Z,12.90
2023-05-11T15:52:56.541Z,12.80
2023-05-11T15:55:29.797Z,12.90
2023-05-11T15:58:02.760Z,12.80
2023-05-11T16:00:37.480Z,12.80
2023-05-11T16:03:10.556Z,12.90
2023-05-11T16:05:44.490Z,12.80
2023-05-11T16:08:17.567Z,12.70
2023-05-11T16:10:51.682Z,12.70
2023-05-11T16:13:24.929Z,12.60
2023-05-11T16:16:00.001Z,12.70
2023-05-11T16:18:33.042Z,12.60
2023-05-11T16:21:06.222Z,12.50
2023-05-11T16:23:39.171Z,12.60
2023-05-11T16:26:12.191Z,12.60
2023-05-11T16:28:45.254Z,12.50
2023-05-11T16:31:19.633Z,12.50
2023-05-11T16:33:52.643Z,12.50
2023-05-11T16:36:25.774Z,12.40
2023-05-11T16:38:58.842Z,12.50
2023-05-11T16:41:31.867Z,12.40
2023-05-11T16:44:05.081Z,12.30
2023-05-11T16:46:39.478Z,12.30
2023-05-11T16:49:12.494Z,12.20
2023-05-11T16:51:45.454Z,12.20
2023-05-11T16:54:18.440Z,12.20
2023-05-11T16:56:51.407Z,12.20
2023-05-11T16:59:24.401Z,12.20
2023-05-11T17:01:58.790Z,12.30
2023-05-11T17:04:32.064Z,12.30
2023-05-11T17:07:05.449Z,12.30
2023-05-11T17:09:38.523Z,12.20
2023-05-11T17:12:12.036Z,12.20
2023-05-11T17:14:44.979Z,12.20
2023-05-11T17:17:19.342Z,12.20
2023-05-11T17:19:52.655Z,12.30
2023-05-11T17:22:25.895Z,12.30
2023-05-11T17:25:00.129Z,12.30
2023-05-11T17:27:33.434Z,12.30
2023-05-11T17:30:08.602Z,12.30
2023-05-11T17:32:43.109Z,12.20
2023-05-11T17:35:16.444Z,12.20
2023-05-11T17:37:49.412Z,12.20
2023-05-11T17:40:22.493Z,12.20
2023-05-11T17:42:55.495Z,12.10
2023-05-11T17:45:30.358Z,12.10
2023-05-11T17:48:05.037Z,12.10
2023-05-11T17:50:38.238Z,12.00
2023-05-11T17:53:11.226Z,12.00
2023-05-11T17:55:44.590Z,11.90
2023-05-11T17:58:17.572Z,12.00
2023-05-11T18:00:50.531Z,11.90
2023-05-11T18:03:24.956Z,11.90
2023-05-11T18:05:57.979Z,11.80
2023-05-11T18:08:30.945Z,11.90
2023-05-11T18:11:04.562Z,11.90
2023-05-11T18:13:37.550Z,11.80
2023-05-11T18:16:10.554Z,11.80
2023-05-11T18:18:45.235Z,11.80
2023-05-11T18:21:19.017Z,11.80
2023-05-11T18:23:52.008Z,11.80
2023-05-11T18:26:26.665Z,11.80
2023-05-11T18:29:01.821Z,11.80
2023-05-11T18:31:34.921Z,11.70
2023-05-11T18:34:09.214Z,11.70
2023-05-11T18:36:42.148Z,11.70
2023-05-11T18:39:15.883Z,11.70
2023-05-11T18:41:48.853Z,11.60
2023-05-11T18:44:21.776Z,11.60
2023-05-11T18:46:54.870Z,11.60
2023-05-11T18:49:29.377Z,11.60
2023-05-11T18:52:03.825Z,11.60
2023-05-11T18:54:36.812Z,11.60
2023-05-11T18:57:11.293Z,11.60
2023-05-11T18:59:44.490Z,11.50
2023-05-11T19:02:17.531Z,11.50
2023-05-11T19:04:51.849Z,11.50
2023-05-11T19:07:24.885Z,11.50
2023-05-11T19:09:57.866Z,11.50
2023-05-11T19:12:30.826Z,11.50
2023-05-11T19:15:04.372Z,11.50
2023-05-11T19:17:38.309Z,11.50
2023-05-11T19:20:13.549Z,11.50
2023-05-11T19:22:46.975Z,11.50
2023-05-11T19:25:20.011Z,11.50
2023-05-11T19:27:53.213Z,11.50
2023-05-11T19:30:26.415Z,11.50
2023-05-11T19:32:59.515Z,11.50
2023-05-11T19:35:33.928Z,11.40
2023-05-11T19:38:07.356Z,11.50
2023-05-11T19:40:45.901Z,11.50
2023-05-11T19:43:19.236Z,11.50
2023-05-11T19:45:52.199Z,11.50
2023-05-11T19:48:25.482Z,11.50
2023-05-11T19:50:59.785Z,11.40
2023-05-11T19:53:33.179Z,11.40
2023-05-11T19:56:08.518Z,11.40
2023-05-11T19:58:41.726Z,11.40
2023-05-11T20:01:15.151Z,11.40
2023-05-11T20:03:48.336Z,11.40
2023-05-11T20:06:22.856Z,11.40
2023-05-11T20:08:56.496Z,11.40
2023-05-11T20:11:31.121Z,11.40
2023-05-11T20:14:06.137Z,11.40
2023-05-11T20:16:39.352Z,11.40
2023-05-11T20:19:12.485Z,11.50
2023-05-11T20:21:46.923Z,11.40
2023-05-11T20:24:20.157Z,11.40
2023-05-11T20:26:53.269Z,11.40
2023-05-11T20:29:26.377Z,11.40
2023-05-11T20:31:59.495Z,11.40
2023-05-11T20:34:32.707Z,11.30
2023-05-11T20:37:07.433Z,11.20
2023-05-11T20:39:40.400Z,11.20
2023-05-11T20:42:13.540Z,11.20
2023-05-11T20:44:49.701Z,11.20
2023-05-11T20:47:22.937Z,11.20
2023-05-11T20:49:55.857Z,11.20
2023-05-11T20:52:30.180Z,11.30
2023-05-11T20:55:03.325Z,11.20
2023-05-11T20:57:36.269Z,11.20
2023-05-11T21:00:11.234Z,11.10
2023-05-11T21:02:45.764Z,11.20
2023-05-11T21:05:19.188Z,11.10
2023-05-11T21:07:53.508Z,11.00
2023-05-11T21:10:26.433Z,11.00
2023-05-11T21:13:00.991Z,11.00
2023-05-11T21:15:34.019Z,11.00
2023-05-11T21:18:07.683Z,11.00
2023-05-11T21:20:40.698Z,11.00
2023-05-11T21:23:15.132Z,10.90
2023-05-11T21:25:53.456Z,10.90
2023-05-11T21:28:26.998Z,11.00
2023-05-11T21:31:00.287Z,11.00
2023-05-11T21:33:33.409Z,11.00
2023-05-11T21:36:08.392Z,11.00
2023-05-11T21:38:42.853Z,11.00
2023-05-11T21:41:16.780Z,11.10
2023-05-11T21:43:50.423Z,11.10
2023-05-11T21:46:23.427Z,11.00
2023-05-11T21:48:56.716Z,11.00
2023-05-11T21:51:29.660Z,11.00
2023-05-11T21:54:04.075Z,11.00
2023-05-11T21:56:37.111Z,11.00
2023-05-11T21:59:10.078Z,11.00
2023-05-11T22:01:43.058Z,11.10
2023-05-11T22:04:16.067Z,11.00
2023-05-11T22:06:49.121Z,11.10
2023-05-11T22:09:23.484Z,11.10
2023-05-11T22:11:56.844Z,11.10
2023-05-11T22:14:30.481Z,11.00
2023-05-11T22:17:03.477Z,10.90
2023-05-11T22:19:36.411Z,11.00
2023-05-11T22:22:09.376Z,10.90
2023-05-11T22:24:43.673Z,10.90
2023-05-11T22:27:16.604Z,11.00
2023-05-11T22:29:49.573Z,11.00
2023-05-11T22:32:22.703Z,10.90
2023-05-11T22:35:00.169Z,10.70
2023-05-11T22:37:33.515Z,10.70
2023-05-11T22:40:09.976Z,10.70
2023-05-11T22:42:43.368Z,10.60
2023-05-11T22:45:16.470Z,10.60
2023-05-11T22:47:49.485Z,10.60
2023-05-11T22:50:22.579Z,10.60
2023-05-11T22:52:56.149Z,10.70
2023-05-11T22:55:30.458Z,10.70
2023-05-11T22:58:03.464Z,10.80
2023-05-11T23:00:36.923Z,10.80
2023-05-11T23:03:10.303Z,10.90
2023-05-11T23:05:43.360Z,10.80
2023-05-11T23:08:16.560Z,10.80
2023-05-11T23:10:51.942Z,10.90
2023-05-11T23:13:25.154Z,10.90
2023-05-11T23:15:58.097Z,10.90
2023-05-11T23:18:31.317Z,10.90
2023-05-11T23:21:04.930Z,10.90
2023-05-11T23:23:37.889Z,10.90
2023-05-11T23:26:12.700Z,10.90
2023-05-11T23:28:45.986Z,10.90
2023-05-11T23:31:18.953Z,10.90
2023-05-11T23:33:51.971Z,10.90
2023-05-11T23:36:24.939Z,11.00
2023-05-11T23:38:57.871Z,11.00
2023-05-11T23:41:32.367Z,11.00
2023-05-11T23:44:05.564Z,10.90
2023-05-11T23:46:38.562Z,10.90
2023-05-11T23:49:11.568Z,11.00
2023-05-11T23:51:44.516Z,10.90
2023-05-11T23:54:17.520Z,10.90
2023-05-11T23:56:51.776Z,10.90
2023-05-11T23:59:24.777Z,10.90
